createdAt,value
2022-08-27T00:00:22.073Z,4.55
2022-08-27T00:02:54.416Z,4.20
2022-08-27T00:05:26.651Z,4.22
2022-08-27T00:07:57.939Z,5.00
2022-08-27T00:10:28.778Z,4.47
2022-08-27T00:13:12.376Z,3.80
2022-08-27T00:15:41.193Z,5.10
2022-08-27T00:18:11.810Z,3.95
2022-08-27T00:20:41.766Z,4.30
2022-08-27T00:23:13.611Z,4.05
2022-08-27T00:25:45.787Z,4.07
2022-08-27T00:28:19.515Z,4.30
2022-08-27T00:30:49.692Z,4.53
2022-08-27T00:33:23.189Z,4.93
2022-08-27T00:35:54.322Z,4.60
2022-08-27T00:38:25.092Z,4.07
2022-08-27T00:40:55.863Z,4.25
2022-08-27T00:43:32.312Z,3.97
2022-08-27T00:46:08.280Z,4.45
2022-08-27T00:48:41.920Z,3.90
2022-08-27T00:51:13.106Z,5.68
2022-08-27T00:53:47.319Z,4.05
2022-08-27T00:56:25.608Z,3.90
2022-08-27T00:58:59.351Z,3.90
2022-08-27T01:01:31.365Z,3.85
2022-08-27T01:04:06.641Z,4.30
2022-08-27T01:06:38.528Z,4.15
2022-08-27T01:09:14.176Z,3.90
2022-08-27T01:11:45.402Z,4.07
2022-08-27T01:14:24.788Z,3.70
2022-08-27T01:16:58.502Z,3.67
2022-08-27T01:19:38.896Z,3.90
2022-08-27T01:22:21.640Z,3.95
2022-08-27T01:24:59.738Z,4.28
2022-08-27T01:27:34.869Z,3.97
2022-08-27T01:30:08.680Z,3.92
2022-08-27T01:32:39.371Z,4.43
2022-08-27T01:35:18.318Z,3.50
2022-08-27T01:37:50.218Z,4.70
2022-08-27T01:40:23.206Z,5.07
2022-08-27T01:42:56.089Z,3.97
2022-08-27T01:45:33.265Z,4.43
2022-08-27T01:48:05.284Z,3.92
2022-08-27T01:50:40.294Z,3.97
2022-08-27T01:53:16.591Z,3.87
2022-08-27T01:55:53.506Z,4.53
2022-08-27T01:58:29.074Z,3.70
2022-08-27T02:01:07.320Z,4.87
2022-08-27T02:03:40.629Z,3.85
2022-08-27T02:06:17.247Z,3.87
2022-08-27T02:08:52.990Z,4.00
2022-08-27T02:11:24.371Z,3.83
2022-08-27T02:13:57.115Z,4.50
2022-08-27T02:16:29.079Z,4.12
2022-08-27T02:21:32.870Z,4.10
2022-08-27T02:24:07.114Z,4.15
2022-08-27T02:26:37.833Z,3.87
2022-08-27T02:29:11.084Z,4.10
2022-08-27T02:31:42.682Z,4.03
2022-08-27T02:34:16.001Z,4.47
2022-08-27T02:36:48.844Z,4.80
2022-08-27T02:39:20.035Z,4.32
2022-08-27T02:41:50.436Z,4.25
2022-08-27T02:44:23.109Z,4.25
2022-08-27T02:46:55.741Z,4.15
2022-08-27T02:49:32.039Z,4.22
2022-08-27T02:52:04.641Z,4.18
2022-08-27T02:54:37.291Z,3.92
2022-08-27T02:57:09.074Z,3.67
2022-08-27T02:59:40.405Z,4.25
2022-08-27T03:02:11.303Z,3.90
2022-08-27T03:04:42.716Z,4.45
2022-08-27T03:07:14.226Z,3.97
2022-08-27T03:09:53.526Z,3.47
2022-08-27T03:12:28.252Z,4.10
2022-08-27T03:15:00.832Z,3.95
2022-08-27T03:17:53.013Z,4.05
2022-08-27T03:20:25.973Z,3.80
2022-08-27T03:22:55.507Z,3.87
2022-08-27T03:25:26.946Z,3.53
2022-08-27T03:28:01.647Z,5.15
2022-08-27T03:30:34.258Z,4.03
2022-08-27T03:33:06.767Z,4.20
2022-08-27T03:35:38.727Z,3.95
2022-08-27T03:38:08.222Z,4.37
2022-08-27T03:40:38.944Z,4.03
2022-08-27T03:43:08.015Z,4.37
2022-08-27T03:46:00.780Z,3.83
2022-08-27T03:48:27.337Z,3.50
2022-08-27T03:50:57.880Z,3.85
2022-08-27T03:53:33.047Z,3.70
2022-08-27T03:56:04.508Z,3.80
2022-08-27T03:58:36.437Z,4.28
2022-08-27T04:03:41.425Z,3.58
2022-08-27T04:06:10.322Z,3.70
2022-08-27T04:08:42.019Z,4.22
2022-08-27T04:11:15.177Z,3.70
2022-08-27T04:13:49.022Z,4.20
2022-08-27T04:16:18.147Z,4.10
2022-08-27T04:18:48.956Z,3.90
2022-08-27T04:21:19.864Z,3.60
2022-08-27T04:23:49.234Z,3.90
2022-08-27T04:26:20.133Z,3.78
2022-08-27T04:28:53.201Z,3.67
2022-08-27T04:31:26.820Z,4.03
2022-08-27T04:33:58.479Z,4.00
2022-08-27T04:36:29.213Z,3.83
2022-08-27T04:39:08.033Z,3.70
2022-08-27T04:41:38.414Z,4.75
2022-08-27T04:44:11.141Z,3.83
2022-08-27T04:46:40.925Z,3.70
2022-08-27T04:49:15.472Z,3.92
2022-08-27T04:51:45.107Z,4.00
2022-08-27T04:54:18.312Z,4.10
2022-08-27T04:56:51.676Z,3.42
2022-08-27T04:59:24.472Z,4.00
2022-08-27T05:01:54.020Z,4.35
2022-08-27T05:04:26.549Z,4.45
2022-08-27T05:06:58.201Z,4.20
2022-08-27T05:09:37.610Z,4.22
2022-08-27T05:12:09.569Z,4.22
2022-08-27T05:14:39.892Z,4.00
2022-08-27T05:17:09.730Z,3.72
2022-08-27T05:19:41.442Z,3.83
2022-08-27T05:22:11.155Z,4.40
2022-08-27T05:24:44.242Z,4.32
2022-08-27T05:27:16.676Z,4.72
2022-08-27T05:29:52.147Z,4.15
2022-08-27T05:32:22.501Z,3.75
2022-08-27T05:34:54.479Z,4.00
2022-08-27T05:37:24.017Z,4.05
2022-08-27T05:42:25.436Z,4.22
2022-08-27T05:44:57.157Z,3.60
2022-08-27T05:47:29.838Z,4.00
2022-08-27T05:50:00.480Z,4.35
2022-08-27T05:52:31.232Z,4.18
2022-08-27T05:55:02.225Z,4.62
2022-08-27T05:57:31.563Z,3.67
2022-08-27T06:00:25.231Z,4.60
2022-08-27T06:02:55.449Z,3.62
2022-08-27T06:05:24.549Z,4.00
2022-08-27T06:07:53.622Z,4.07
2022-08-27T06:10:23.860Z,3.70
2022-08-27T06:12:56.985Z,3.87
2022-08-27T06:15:28.629Z,4.43
2022-08-27T06:18:01.014Z,5.62
2022-08-27T06:20:32.722Z,6.50
2022-08-27T06:23:02.743Z,6.85
2022-08-27T06:25:34.077Z,6.65
2022-08-27T06:28:04.064Z,6.25
2022-08-27T06:30:39.064Z,5.95
2022-08-27T06:33:11.484Z,5.97
2022-08-27T06:35:40.437Z,5.45
2022-08-27T06:38:08.885Z,5.43
2022-08-27T06:40:42.559Z,4.62
2022-08-27T06:43:19.356Z,4.50
2022-08-27T06:45:51.872Z,4.78
2022-08-27T06:48:20.944Z,4.53
2022-08-27T06:50:49.517Z,4.03
2022-08-27T06:53:24.339Z,3.60
2022-08-27T06:55:53.902Z,3.95
2022-08-27T06:58:25.009Z,3.80
2022-08-27T07:00:53.472Z,3.75
2022-08-27T07:03:23.747Z,3.53
2022-08-27T07:05:54.862Z,3.55
2022-08-27T07:08:27.605Z,3.62
2022-08-27T07:10:59.510Z,3.58
2022-08-27T07:13:31.665Z,3.60
2022-08-27T07:16:08.791Z,4.68
2022-08-27T07:18:39.899Z,4.47
2022-08-27T07:21:12.809Z,3.97
2022-08-27T07:23:42.569Z,3.62
2022-08-27T07:28:50.675Z,3.97
2022-08-27T07:31:27.376Z,4.45
2022-08-27T07:33:57.605Z,3.60
2022-08-27T07:36:31.706Z,3.65
2022-08-27T07:39:01.958Z,3.50
2022-08-27T07:41:54.673Z,3.78
2022-08-27T07:44:34.276Z,3.35
2022-08-27T07:47:05.665Z,3.58
2022-08-27T07:49:35.911Z,3.70
2022-08-27T07:52:09.041Z,3.25
2022-08-27T07:54:39.382Z,3.78
2022-08-27T07:57:13.157Z,3.87
2022-08-27T07:59:45.747Z,3.72
2022-08-27T08:02:15.926Z,3.30
2022-08-27T08:04:49.804Z,3.60
2022-08-27T08:07:19.090Z,3.97
2022-08-27T08:09:54.056Z,3.40
2022-08-27T08:12:26.601Z,3.17
2022-08-27T08:14:59.180Z,3.65
2022-08-27T08:17:29.646Z,3.33
2022-08-27T08:20:20.033Z,3.80
2022-08-27T08:22:49.547Z,3.67
2022-08-27T08:25:22.052Z,3.90
2022-08-27T08:27:54.256Z,3.30
2022-08-27T08:30:24.818Z,3.50
2022-08-27T08:32:55.840Z,3.70
2022-08-27T08:35:27.524Z,3.30
2022-08-27T08:38:04.349Z,3.37
2022-08-27T08:40:39.763Z,3.10
2022-08-27T08:43:20.118Z,3.50
2022-08-27T08:45:52.289Z,3.45
2022-08-27T08:48:25.008Z,3.58
2022-08-27T08:51:06.878Z,3.55
2022-08-27T08:53:53.642Z,3.92
2022-08-27T08:56:33.249Z,3.83
2022-08-27T08:59:24.302Z,3.30
2022-08-27T09:01:56.932Z,3.72
2022-08-27T09:04:29.833Z,3.17
2022-08-27T09:07:10.858Z,3.53
2022-08-27T09:10:02.757Z,3.92
2022-08-27T09:12:35.306Z,3.30
2022-08-27T09:15:12.478Z,3.25
2022-08-27T09:17:46.097Z,3.60
2022-08-27T09:20:19.236Z,2.95
2022-08-27T09:23:07.558Z,3.22
2022-08-27T09:25:42.694Z,3.78
2022-08-27T09:31:13.485Z,3.42
2022-08-27T09:33:56.114Z,3.72
2022-08-27T09:36:27.411Z,3.17
2022-08-27T09:39:00.838Z,3.03
2022-08-27T09:41:36.795Z,2.65
2022-08-27T09:44:12.755Z,2.87
2022-08-27T09:46:53.761Z,3.03
2022-08-27T09:49:24.380Z,3.00
2022-08-27T09:51:57.514Z,2.95
2022-08-27T09:54:42.730Z,2.67
2022-08-27T09:57:16.469Z,2.45
2022-08-27T09:59:55.768Z,2.50
2022-08-27T10:02:27.305Z,2.53
2022-08-27T10:05:04.109Z,2.22
2022-08-27T10:07:58.318Z,2.28
2022-08-27T10:10:48.207Z,2.35
2022-08-27T10:13:42.039Z,2.40
2022-08-27T10:16:26.820Z,2.20
2022-08-27T10:19:33.354Z,2.37
2022-08-27T10:22:19.252Z,2.20
2022-08-27T10:25:05.245Z,2.37
2022-08-27T10:28:05.661Z,3.05
2022-08-27T10:30:57.009Z,2.10
2022-08-27T10:33:37.079Z,2.03
2022-08-27T10:36:25.161Z,2.53
2022-08-27T10:39:39.669Z,2.17
2022-08-27T10:42:33.541Z,2.40
2022-08-27T10:45:55.792Z,2.25
2022-08-27T10:49:18.354Z,2.37
2022-08-27T10:52:08.108Z,2.40
2022-08-27T10:54:44.703Z,2.33
2022-08-27T10:57:45.405Z,2.10
2022-08-27T11:00:21.816Z,2.50
2022-08-27T11:03:03.674Z,2.30
2022-08-27T11:05:37.125Z,2.58
2022-08-27T11:08:29.916Z,2.65
2022-08-27T11:11:56.952Z,2.75
2022-08-27T11:14:08.691Z,2.83
2022-08-27T11:16:51.762Z,2.45
2022-08-27T11:19:26.572Z,2.90
2022-08-27T11:22:26.342Z,2.55
2022-08-27T11:27:29.512Z,2.60
2022-08-27T11:30:16.773Z,4.07
2022-08-27T11:33:21.398Z,2.75
2022-08-27T11:35:56.552Z,2.90
2022-08-27T11:38:29.412Z,3.15
2022-08-27T11:41:09.323Z,2.90
2022-08-27T11:43:38.141Z,2.97
2022-08-27T11:46:08.916Z,3.03
2022-08-27T11:51:09.338Z,2.40
2022-08-27T11:53:54.691Z,3.33
2022-08-27T11:56:25.824Z,2.50
2022-08-27T11:58:54.323Z,3.10
2022-08-27T12:01:28.469Z,2.83
2022-08-27T12:04:07.429Z,3.62
2022-08-27T12:06:50.434Z,3.08
2022-08-27T12:09:22.366Z,2.70
2022-08-27T12:12:11.687Z,2.83
2022-08-27T12:14:53.410Z,3.47
2022-08-27T12:17:46.615Z,4.03
2022-08-27T12:20:46.357Z,2.60
2022-08-27T12:23:45.310Z,3.40
2022-08-27T12:26:17.575Z,2.80
2022-08-27T12:28:47.843Z,3.85
2022-08-27T12:31:21.956Z,3.08
2022-08-27T12:33:57.377Z,3.12
2022-08-27T12:36:28.380Z,3.03
2022-08-27T12:38:58.629Z,2.78
2022-08-27T12:41:43.609Z,3.22
2022-08-27T12:44:34.539Z,2.70
2022-08-27T12:49:46.494Z,2.92
2022-08-27T12:52:35.676Z,3.22
2022-08-27T12:55:30.712Z,2.95
2022-08-27T12:57:59.286Z,2.80
2022-08-27T13:00:36.137Z,3.17
2022-08-27T13:03:11.265Z,2.90
2022-08-27T13:05:45.733Z,2.55
2022-08-27T13:08:27.938Z,3.10
2022-08-27T13:10:58.076Z,2.87
2022-08-27T13:15:59.625Z,3.55
2022-08-27T13:18:29.553Z,2.87
2022-08-27T13:21:33.237Z,2.85
2022-08-27T13:24:06.566Z,2.95
2022-08-27T13:26:37.723Z,3.05
2022-08-27T13:29:13.732Z,3.28
2022-08-27T13:31:42.638Z,2.83
2022-08-27T13:34:16.021Z,3.00
2022-08-27T13:37:02.575Z,3.05
2022-08-27T13:39:38.352Z,2.95
2022-08-27T13:42:09.661Z,2.87
2022-08-27T13:44:40.209Z,3.00
2022-08-27T13:47:18.551Z,2.78
2022-08-27T13:49:46.514Z,2.87
2022-08-27T13:53:05.737Z,2.95
2022-08-27T13:55:40.197Z,2.90
2022-08-27T13:58:14.414Z,3.05
2022-08-27T14:00:43.597Z,2.87
2022-08-27T14:03:27.122Z,2.90
2022-08-27T14:05:57.239Z,2.58
2022-08-27T14:08:31.826Z,3.00
2022-08-27T14:11:07.186Z,2.92
2022-08-27T14:13:43.520Z,3.05
2022-08-27T14:16:29.130Z,2.83
2022-08-27T14:19:11.563Z,3.00
2022-08-27T14:21:42.515Z,3.85
2022-08-27T14:24:12.221Z,3.20
2022-08-27T14:26:40.425Z,3.17
2022-08-27T14:29:11.847Z,2.97
2022-08-27T14:31:41.966Z,2.67
2022-08-27T14:36:42.410Z,3.20
2022-08-27T14:39:11.313Z,2.92
2022-08-27T14:41:39.814Z,2.95
2022-08-27T14:44:09.393Z,3.70
2022-08-27T14:46:41.422Z,3.15
2022-08-27T14:49:18.155Z,3.05
2022-08-27T14:51:46.406Z,3.17
2022-08-27T14:54:16.060Z,2.80
2022-08-27T14:56:44.743Z,3.30
2022-08-27T14:59:12.471Z,3.03
2022-08-27T15:01:41.262Z,2.62
2022-08-27T15:04:09.581Z,3.08
2022-08-27T15:06:37.599Z,2.90
2022-08-27T15:09:06.509Z,3.10
2022-08-27T15:11:36.655Z,3.08
2022-08-27T15:14:06.722Z,3.05
2022-08-27T15:16:39.046Z,2.62
2022-08-27T15:19:08.855Z,3.47
2022-08-27T15:21:39.755Z,2.80
2022-08-27T15:24:28.546Z,3.08
2022-08-27T15:27:00.120Z,3.50
2022-08-27T15:29:30.074Z,3.08
2022-08-27T15:31:58.637Z,3.05
2022-08-27T15:34:27.653Z,2.87
2022-08-27T15:36:57.305Z,2.85
2022-08-27T15:39:28.722Z,2.78
2022-08-27T15:42:07.268Z,3.08
2022-08-27T15:44:39.557Z,3.35
2022-08-27T15:47:07.396Z,2.80
2022-08-27T15:49:35.728Z,3.28
2022-08-27T15:52:04.797Z,3.22
2022-08-27T15:54:33.047Z,3.50
2022-08-27T15:57:02.574Z,3.08
2022-08-27T15:59:30.342Z,3.12
2022-08-27T16:02:00.717Z,3.15
2022-08-27T16:04:30.192Z,3.10
2022-08-27T16:06:58.299Z,3.70
2022-08-27T16:09:28.612Z,3.42
2022-08-27T16:11:58.636Z,3.40
2022-08-27T16:14:27.008Z,4.45
2022-08-27T16:16:56.440Z,2.65
2022-08-27T16:19:24.976Z,4.07
2022-08-27T16:21:54.482Z,3.05
2022-08-27T16:24:23.084Z,3.20
2022-08-27T16:26:52.013Z,3.22
2022-08-27T16:29:20.867Z,3.20
2022-08-27T16:31:50.128Z,3.05
2022-08-27T16:34:22.809Z,3.20
2022-08-27T16:36:51.107Z,3.90
2022-08-27T16:39:20.369Z,3.08
2022-08-27T16:41:49.423Z,3.35
2022-08-27T16:44:18.087Z,3.20
2022-08-27T16:46:46.850Z,3.42
2022-08-27T16:49:33.468Z,3.50
2022-08-27T16:52:03.560Z,3.20
2022-08-27T16:54:34.882Z,3.45
2022-08-27T16:57:02.926Z,3.35
2022-08-27T16:59:31.603Z,4.07
2022-08-27T17:01:59.575Z,4.30
2022-08-27T17:04:36.713Z,3.87
2022-08-27T17:07:06.133Z,3.90
2022-08-27T17:09:35.071Z,3.90
2022-08-27T17:12:05.454Z,3.47
2022-08-27T17:14:38.047Z,3.42
2022-08-27T17:17:06.243Z,3.05
2022-08-27T17:19:34.922Z,3.55
2022-08-27T17:22:04.533Z,4.20
2022-08-27T17:24:32.578Z,3.30
2022-08-27T17:27:01.410Z,3.90
2022-08-27T17:29:30.075Z,3.28
2022-08-27T17:31:58.200Z,3.80
2022-08-27T17:34:28.866Z,3.40
2022-08-27T17:37:00.436Z,3.83
2022-08-27T17:39:31.143Z,4.03
2022-08-27T17:41:59.855Z,4.27
2022-08-27T17:44:31.781Z,3.70
2022-08-27T17:47:03.670Z,3.67
2022-08-27T17:49:31.975Z,4.10
2022-08-27T17:52:04.219Z,3.95
2022-08-27T17:54:41.229Z,4.65
2022-08-27T17:57:40.970Z,4.07
2022-08-27T18:00:11.829Z,4.65
2022-08-27T18:02:48.586Z,4.35
2022-08-27T18:05:18.833Z,4.12
2022-08-27T18:07:47.989Z,4.07
2022-08-27T18:10:18.889Z,4.45
2022-08-27T18:12:48.142Z,3.62
2022-08-27T18:15:18.653Z,4.12
2022-08-27T18:17:53.267Z,3.67
2022-08-27T18:20:27.901Z,3.90
2022-08-27T18:22:56.893Z,4.03
2022-08-27T18:25:29.082Z,4.43
2022-08-27T18:28:01.909Z,4.30
2022-08-27T18:33:02.733Z,3.70
2022-08-27T18:35:32.738Z,4.00
2022-08-27T18:38:02.373Z,3.65
2022-08-27T18:40:38.341Z,3.87
2022-08-27T18:43:07.205Z,3.83
2022-08-27T18:45:37.768Z,4.03
2022-08-27T18:48:16.886Z,4.03
2022-08-27T18:50:49.087Z,4.20
2022-08-27T18:53:20.491Z,3.62
2022-08-27T18:55:53.514Z,4.47
2022-08-27T18:58:22.796Z,4.65
2022-08-27T19:00:56.469Z,4.47
2022-08-27T19:03:39.535Z,4.12
2022-08-27T19:06:09.683Z,3.72
2022-08-27T19:08:39.766Z,4.28
2022-08-27T19:11:10.730Z,3.78
2022-08-27T19:13:41.812Z,3.87
2022-08-27T19:16:18.934Z,4.23
2022-08-27T19:18:48.098Z,4.37
2022-08-27T19:21:16.566Z,4.75
2022-08-27T19:23:44.299Z,3.60
2022-08-27T19:26:19.347Z,4.62
2022-08-27T19:28:49.729Z,4.37
2022-08-27T19:31:20.086Z,4.43
2022-08-27T19:33:49.280Z,4.70
2022-08-27T19:36:20.176Z,4.05
2022-08-27T19:38:53.212Z,4.20
2022-08-27T19:41:27.295Z,4.70
2022-08-27T19:43:56.768Z,3.95
2022-08-27T19:46:26.026Z,5.20
2022-08-27T19:48:55.463Z,3.95
2022-08-27T19:51:24.647Z,3.92
2022-08-27T19:53:53.227Z,4.22
2022-08-27T19:56:21.542Z,4.15
2022-08-27T19:58:55.235Z,5.57
2022-08-27T20:01:25.502Z,4.30
2022-08-27T20:03:58.823Z,4.70
2022-08-27T20:06:28.188Z,4.18
2022-08-27T20:08:56.852Z,4.18
2022-08-27T20:11:25.645Z,4.25
2022-08-27T20:13:58.700Z,4.53
2022-08-27T20:16:28.833Z,4.32
2022-08-27T20:19:02.430Z,4.30
2022-08-27T20:21:37.260Z,4.07
2022-08-27T20:24:07.600Z,4.68
2022-08-27T20:26:39.352Z,3.83
2022-08-27T20:29:14.934Z,4.22
2022-08-27T20:32:04.363Z,4.40
2022-08-27T20:34:35.060Z,4.65
2022-08-27T20:37:04.007Z,4.15
2022-08-27T20:39:32.437Z,4.15
2022-08-27T20:42:01.640Z,4.37
2022-08-27T20:44:30.202Z,4.10
2022-08-27T20:47:00.171Z,4.78
2022-08-27T20:49:30.488Z,4.20
2022-08-27T20:52:03.984Z,4.25
2022-08-27T20:54:35.127Z,4.43
2022-08-27T20:57:04.407Z,4.35
2022-08-27T20:59:51.505Z,4.80
2022-08-27T21:02:24.089Z,4.30
2022-08-27T21:04:52.779Z,4.40
2022-08-27T21:07:23.118Z,4.62
2022-08-27T21:09:57.068Z,4.60
2022-08-27T21:12:28.321Z,4.57
2022-08-27T21:14:59.295Z,4.28
2022-08-27T21:17:29.021Z,4.87
2022-08-27T21:19:57.856Z,4.35
2022-08-27T21:22:25.631Z,4.37
2022-08-27T21:24:53.901Z,4.37
2022-08-27T21:27:22.056Z,4.87
2022-08-27T21:29:50.550Z,4.62
2022-08-27T21:32:19.288Z,3.97
2022-08-27T21:34:49.590Z,4.25
2022-08-27T21:37:18.521Z,4.60
2022-08-27T21:39:46.584Z,4.37
2022-08-27T21:42:15.823Z,4.03
2022-08-27T21:44:44.772Z,4.50
2022-08-27T21:47:13.002Z,5.90
2022-08-27T21:49:42.129Z,4.15
2022-08-27T21:52:11.892Z,4.85
2022-08-27T21:54:42.989Z,4.53
2022-08-27T21:57:14.053Z,4.50
2022-08-27T21:59:45.941Z,4.25
2022-08-27T22:02:38.747Z,4.47
2022-08-27T22:05:09.442Z,4.32
2022-08-27T22:07:37.318Z,5.37
2022-08-27T22:10:08.069Z,4.82
2022-08-27T22:12:38.400Z,5.07
2022-08-27T22:15:11.448Z,4.90
2022-08-27T22:17:41.477Z,4.50
2022-08-27T22:20:15.356Z,4.57
2022-08-27T22:22:46.241Z,4.70
2022-08-27T22:25:17.933Z,4.75
2022-08-27T22:27:47.910Z,4.43
2022-08-27T22:30:21.143Z,4.62
2022-08-27T22:32:54.928Z,5.05
2022-08-27T22:35:29.118Z,4.35
2022-08-27T22:38:01.294Z,4.90
2022-08-27T22:40:35.744Z,4.85
2022-08-27T22:43:09.647Z,4.93
2022-08-27T22:45:44.391Z,5.10
2022-08-27T22:48:15.567Z,4.78
2022-08-27T22:50:51.169Z,5.57
2022-08-27T22:53:21.768Z,5.57
2022-08-27T22:55:54.211Z,4.87
2022-08-27T22:58:25.161Z,5.80
2022-08-27T23:00:57.819Z,5.03
2022-08-27T23:03:27.578Z,5.10
2022-08-27T23:06:00.223Z,4.95
2022-08-27T23:08:32.701Z,4.90
2022-08-27T23:11:05.615Z,4.80
2022-08-27T23:13:35.275Z,4.60
2022-08-27T23:18:36.782Z,4.75
2022-08-27T23:21:14.179Z,4.43
2022-08-27T23:23:44.328Z,4.80
2022-08-27T23:29:04.574Z,4.30
2022-08-27T23:31:38.357Z,5.10
2022-08-27T23:34:10.633Z,4.68
2022-08-27T23:36:42.127Z,5.30
2022-08-27T23:39:12.019Z,4.50
2022-08-27T23:41:45.384Z,4.70
2022-08-27T23:44:16.540Z,4.85
2022-08-27T23:46:48.940Z,4.85
2022-08-27T23:49:22.430Z,5.25
2022-08-27T23:51:53.376Z,5.22
2022-08-27T23:54:24.494Z,4.62
2022-08-27T23:56:58.035Z,5.03
2022-08-27T23:59:30.458Z,5.00
